Terminal Aerodrome Forecast
Issued by NWS

Home | Current Version | Previous Version | Text Only | Print | Product List | Glossary Off
Versions: 1 2 3 4 5 6 7 8 9 10 11 12 13 14 15 16 17 18

173
FTUS43 KABR 221039 AAB
TAFATY
TAF AMD
KATY 221039Z 2211/2306 VRB05KT P6SM SCT200
      TEMPO 2211/2213 3SM BR
     FM221800 26006KT P6SM FEW200
     FM230500 21006KT P6SM FEW250=

USA.gov is the U.S. government's official web portal to all federal, state and local government web resources and services.